Pitlochry, United Kingdom
Current Conditions -  °F | °C
As of 4:20 PM on Sunday 21 Dec 2014 (Local Time) from EGPN Reporting Station
Moderate Rain Moderate Rain  
Wind Chill: 50°   Ceiling: 1400
Heat Index: 50°   Visibility: 6mi
Dew Point: 48°   Wind: 25mph
Humidity: 94%   Direction: 250°WSW
Pressure: 29.62"   Gusts: NA
Location:  56.71°N, 3.73°W
Report Text: EGPN 211620Z 25022KT 9999 RA SCT010 BKN014 10/09 Q1003
Loading
Personal Weather Stations






























Interactive Weather Map New forecast layout! Learn more

10-Day Weather Forecast

Advertisements
Track Severe Weather on mobile